sensor_id;sensor_type;location;lat;lon;timestamp;temperature;humidity
25188;DHT22;13141;50.414;8.050;2024-03-02T00:02:05;5.90;99.90
25188;DHT22;13141;50.414;8.050;2024-03-02T00:04:31;5.90;99.90
25188;DHT22;13141;50.414;8.050;2024-03-02T00:06:57;5.90;99.90
25188;DHT22;13141;50.414;8.050;2024-03-02T00:09:23;6.00;99.90
25188;DHT22;13141;50.414;8.050;2024-03-02T00:11:49;6.00;99.90
25188;DHT22;13141;50.414;8.050;2024-03-02T00:14:15;6.10;99.90
25188;DHT22;13141;50.414;8.050;2024-03-02T00:16:42;6.10;99.90
25188;DHT22;13141;50.414;8.050;2024-03-02T00:19:09;6.10;99.90
25188;DHT22;13141;50.414;8.050;2024-03-02T00:21:35;6.00;99.90
25188;DHT22;13141;50.414;8.050;2024-03-02T00:24:02;6.00;99.90
25188;DHT22;13141;50.414;8.050;2024-03-02T00:26:32;5.90;99.90
25188;DHT22;13141;50.414;8.050;2024-03-02T00:28:59;5.80;99.90
25188;DHT22;13141;50.414;8.050;2024-03-02T00:31:25;5.80;99.90
25188;DHT22;13141;50.414;8.050;2024-03-02T00:33:52;5.80;99.90
25188;DHT22;13141;50.414;8.050;2024-03-02T00:36:22;5.70;99.90
25188;DHT22;13141;50.414;8.050;2024-03-02T00:38:51;5.60;99.90
25188;DHT22;13141;50.414;8.050;2024-03-02T00:41:21;5.60;99.90
25188;DHT22;13141;50.414;8.050;2024-03-02T00:43:49;5.70;99.90
25188;DHT22;13141;50.414;8.050;2024-03-02T00:46:19;5.70;99.90
25188;DHT22;13141;50.414;8.050;2024-03-02T00:48:54;5.70;99.90
25188;DHT22;13141;50.414;8.050;2024-03-02T00:51:21;5.70;99.90
25188;DHT22;13141;50.414;8.050;2024-03-02T00:53:47;5.80;99.90
25188;DHT22;13141;50.414;8.050;2024-03-02T00:56:12;5.80;99.90
25188;DHT22;13141;50.414;8.050;2024-03-02T00:58:39;6.00;99.90
25188;DHT22;13141;50.414;8.050;2024-03-02T01:01:05;5.90;99.90
25188;DHT22;13141;50.414;8.050;2024-03-02T01:03:31;5.40;99.90
25188;DHT22;13141;50.414;8.050;2024-03-02T01:05:59;5.90;99.90
25188;DHT22;13141;50.414;8.050;2024-03-02T01:08:25;5.90;99.90
25188;DHT22;13141;50.414;8.050;2024-03-02T01:10:50;6.00;99.90
25188;DHT22;13141;50.414;8.050;2024-03-02T01:13:16;6.00;99.90
25188;DHT22;13141;50.414;8.050;2024-03-02T01:15:42;6.00;99.90
25188;DHT22;13141;50.414;8.050;2024-03-02T01:18:08;6.00;99.90
25188;DHT22;13141;50.414;8.050;2024-03-02T01:20:33;6.00;99.90
25188;DHT22;13141;50.414;8.050;2024-03-02T01:23:01;6.00;99.90
25188;DHT22;13141;50.414;8.050;2024-03-02T01:25:26;6.00;99.90
25188;DHT22;13141;50.414;8.050;2024-03-02T01:27:52;6.00;99.90
25188;DHT22;13141;50.414;8.050;2024-03-02T01:30:18;6.00;99.90
25188;DHT22;13141;50.414;8.050;2024-03-02T01:32:43;6.00;99.90
25188;DHT22;13141;50.414;8.050;2024-03-02T01:35:09;6.00;99.90
25188;DHT22;13141;50.414;8.050;2024-03-02T01:37:35;6.20;99.90
25188;DHT22;13141;50.414;8.050;2024-03-02T01:40:02;5.90;99.90
25188;DHT22;13141;50.414;8.050;2024-03-02T01:42:28;5.90;99.90
25188;DHT22;13141;50.414;8.050;2024-03-02T01:44:53;6.20;99.90
25188;DHT22;13141;50.414;8.050;2024-03-02T01:47:19;5.90;99.90
25188;DHT22;13141;50.414;8.050;2024-03-02T01:49:45;5.90;99.90
25188;DHT22;13141;50.414;8.050;2024-03-02T01:52:11;5.90;99.90
25188;DHT22;13141;50.414;8.050;2024-03-02T01:54:37;5.90;99.90
25188;DHT22;13141;50.414;8.050;2024-03-02T01:57:04;5.90;99.90
25188;DHT22;13141;50.414;8.050;2024-03-02T01:59:30;5.90;99.90
25188;DHT22;13141;50.414;8.050;2024-03-02T02:01:58;5.90;99.90
25188;DHT22;13141;50.414;8.050;2024-03-02T02:04:24;5.90;99.90
25188;DHT22;13141;50.414;8.050;2024-03-02T02:06:50;6.00;99.90
25188;DHT22;13141;50.414;8.050;2024-03-02T02:09:15;6.20;99.90
25188;DHT22;13141;50.414;8.050;2024-03-02T02:11:41;6.10;99.90
25188;DHT22;13141;50.414;8.050;2024-03-02T02:14:08;6.10;99.90
25188;DHT22;13141;50.414;8.050;2024-03-02T02:16:34;6.10;99.90
25188;DHT22;13141;50.414;8.050;2024-03-02T02:19:00;6.40;99.90
25188;DHT22;13141;50.414;8.050;2024-03-02T02:21:27;6.20;99.90
25188;DHT22;13141;50.414;8.050;2024-03-02T02:23:52;6.20;99.90
25188;DHT22;13141;50.414;8.050;2024-03-02T02:26:18;6.40;99.90
25188;DHT22;13141;50.414;8.050;2024-03-02T02:28:44;6.20;99.90
25188;DHT22;13141;50.414;8.050;2024-03-02T02:31:09;6.20;99.90
25188;DHT22;13141;50.414;8.050;2024-03-02T02:33:39;6.20;99.90
25188;DHT22;13141;50.414;8.050;2024-03-02T02:36:05;6.20;99.90
25188;DHT22;13141;50.414;8.050;2024-03-02T02:38:33;6.30;99.90
25188;DHT22;13141;50.414;8.050;2024-03-02T02:41:01;6.20;99.90
25188;DHT22;13141;50.414;8.050;2024-03-02T02:43:27;6.20;99.90
25188;DHT22;13141;50.414;8.050;2024-03-02T02:45:53;6.20;99.90
25188;DHT22;13141;50.414;8.050;2024-03-02T02:48:19;6.20;99.90
25188;DHT22;13141;50.414;8.050;2024-03-02T02:50:45;6.20;99.90
25188;DHT22;13141;50.414;8.050;2024-03-02T02:53:10;6.10;99.90
25188;DHT22;13141;50.414;8.050;2024-03-02T02:55:39;6.10;99.90
25188;DHT22;13141;50.414;8.050;2024-03-02T02:58:05;6.00;99.90
25188;DHT22;13141;50.414;8.050;2024-03-02T03:00:31;6.00;99.90
25188;DHT22;13141;50.414;8.050;2024-03-02T03:02:57;5.90;99.90
25188;DHT22;13141;50.414;8.050;2024-03-02T03:05:23;6.00;99.90
25188;DHT22;13141;50.414;8.050;2024-03-02T03:07:48;6.00;99.90
25188;DHT22;13141;50.414;8.050;2024-03-02T03:10:14;6.10;99.90
25188;DHT22;13141;50.414;8.050;2024-03-02T03:12:42;6.10;99.90
25188;DHT22;13141;50.414;8.050;2024-03-02T03:15:09;6.10;99.90
25188;DHT22;13141;50.414;8.050;2024-03-02T03:17:35;6.00;99.90
25188;DHT22;13141;50.414;8.050;2024-03-02T03:20:01;6.00;99.90
25188;DHT22;13141;50.414;8.050;2024-03-02T03:22:27;6.00;99.90
25188;DHT22;13141;50.414;8.050;2024-03-02T03:24:52;5.90;99.90
25188;DHT22;13141;50.414;8.050;2024-03-02T03:27:18;5.70;99.90
25188;DHT22;13141;50.414;8.050;2024-03-02T03:29:45;5.80;99.90
25188;DHT22;13141;50.414;8.050;2024-03-02T03:32:11;5.90;99.90
25188;DHT22;13141;50.414;8.050;2024-03-02T03:34:37;5.60;99.90
25188;DHT22;13141;50.414;8.050;2024-03-02T03:37:03;5.60;99.90
25188;DHT22;13141;50.414;8.050;2024-03-02T03:39:29;5.50;99.90
25188;DHT22;13141;50.414;8.050;2024-03-02T03:41:55;5.60;99.90
25188;DHT22;13141;50.414;8.050;2024-03-02T03:44:21;5.50;99.90
25188;DHT22;13141;50.414;8.050;2024-03-02T03:46:48;5.50;99.90
25188;DHT22;13141;50.414;8.050;2024-03-02T03:49:14;5.50;99.90
25188;DHT22;13141;50.414;8.050;2024-03-02T03:51:39;5.60;99.90
25188;DHT22;13141;50.414;8.050;2024-03-02T03:54:05;5.70;99.90
25188;DHT22;13141;50.414;8.050;2024-03-02T03:56:31;5.70;99.90
25188;DHT22;13141;50.414;8.050;2024-03-02T03:58:56;5.70;99.90
25188;DHT22;13141;50.414;8.050;2024-03-02T04:01:22;5.60;99.90
25188;DHT22;13141;50.414;8.050;2024-03-02T04:03:49;5.60;99.90
25188;DHT22;13141;50.414;8.050;2024-03-02T04:06:15;5.50;99.90
25188;DHT22;13141;50.414;8.050;2024-03-02T04:08:41;5.40;99.90
25188;DHT22;13141;50.414;8.050;2024-03-02T04:11:07;5.40;99.90
25188;DHT22;13141;50.414;8.050;2024-03-02T04:13:33;5.40;99.90
25188;DHT22;13141;50.414;8.050;2024-03-02T04:15:59;5.40;99.90
25188;DHT22;13141;50.414;8.050;2024-03-02T04:18:25;5.40;99.90
25188;DHT22;13141;50.414;8.050;2024-03-02T04:20:52;5.40;99.90
25188;DHT22;13141;50.414;8.050;2024-03-02T04:23:17;5.40;99.90
25188;DHT22;13141;50.414;8.050;2024-03-02T04:25:43;5.40;99.90
25188;DHT22;13141;50.414;8.050;2024-03-02T04:28:09;5.40;99.90
25188;DHT22;13141;50.414;8.050;2024-03-02T04:30:34;5.40;99.90
25188;DHT22;13141;50.414;8.050;2024-03-02T04:33:00;5.40;99.90
25188;DHT22;13141;50.414;8.050;2024-03-02T04:35:26;5.40;99.90
25188;DHT22;13141;50.414;8.050;2024-03-02T04:37:53;5.40;99.90
25188;DHT22;13141;50.414;8.050;2024-03-02T04:40:19;5.40;99.90
25188;DHT22;13141;50.414;8.050;2024-03-02T04:42:45;5.50;99.90
25188;DHT22;13141;50.414;8.050;2024-03-02T04:45:11;5.50;99.90
25188;DHT22;13141;50.414;8.050;2024-03-02T04:47:36;5.40;99.90
25188;DHT22;13141;50.414;8.050;2024-03-02T04:50:02;5.40;99.90
25188;DHT22;13141;50.414;8.050;2024-03-02T04:52:28;5.40;99.90
25188;DHT22;13141;50.414;8.050;2024-03-02T04:54:56;5.30;99.90
25188;DHT22;13141;50.414;8.050;2024-03-02T04:57:22;5.20;99.90
25188;DHT22;13141;50.414;8.050;2024-03-02T04:59:47;5.20;99.90
25188;DHT22;13141;50.414;8.050;2024-03-02T05:02:13;5.20;99.90
25188;DHT22;13141;50.414;8.050;2024-03-02T05:04:39;5.20;99.90
25188;DHT22;13141;50.414;8.050;2024-03-02T05:07:05;5.20;99.90
25188;DHT22;13141;50.414;8.050;2024-03-02T05:09:31;5.10;99.90
25188;DHT22;13141;50.414;8.050;2024-03-02T05:11:58;5.10;99.90
25188;DHT22;13141;50.414;8.050;2024-03-02T05:14:23;5.10;99.90
25188;DHT22;13141;50.414;8.050;2024-03-02T05:16:49;5.10;99.90
25188;DHT22;13141;50.414;8.050;2024-03-02T05:19:15;5.10;99.90
25188;DHT22;13141;50.414;8.050;2024-03-02T05:21:41;5.20;99.90
25188;DHT22;13141;50.414;8.050;2024-03-02T05:24:07;5.20;99.90
25188;DHT22;13141;50.414;8.050;2024-03-02T05:26:32;5.20;99.90
25188;DHT22;13141;50.414;8.050;2024-03-02T05:29:00;5.20;99.90
25188;DHT22;13141;50.414;8.050;2024-03-02T05:31:25;5.20;99.90
25188;DHT22;13141;50.414;8.050;2024-03-02T05:33:51;5.20;99.90
25188;DHT22;13141;50.414;8.050;2024-03-02T05:36:17;5.20;99.90
25188;DHT22;13141;50.414;8.050;2024-03-02T05:38:43;5.20;99.90
25188;DHT22;13141;50.414;8.050;2024-03-02T05:41:09;5.20;99.90
25188;DHT22;13141;50.414;8.050;2024-03-02T05:43:35;5.20;99.90
25188;DHT22;13141;50.414;8.050;2024-03-02T05:46:02;5.20;99.90
25188;DHT22;13141;50.414;8.050;2024-03-02T05:48:28;5.20;99.90
25188;DHT22;13141;50.414;8.050;2024-03-02T05:50:54;5.20;99.90
25188;DHT22;13141;50.414;8.050;2024-03-02T05:53:19;5.20;99.90
25188;DHT22;13141;50.414;8.050;2024-03-02T05:55:45;5.20;99.90
25188;DHT22;13141;50.414;8.050;2024-03-02T05:58:11;4.90;99.90
25188;DHT22;13141;50.414;8.050;2024-03-02T06:00:39;5.30;99.90
25188;DHT22;13141;50.414;8.050;2024-03-02T06:03:06;5.30;99.90
25188;DHT22;13141;50.414;8.050;2024-03-02T06:05:32;5.40;99.90
25188;DHT22;13141;50.414;8.050;2024-03-02T06:07:58;5.40;99.90
25188;DHT22;13141;50.414;8.050;2024-03-02T06:10:23;5.40;99.90
25188;DHT22;13141;50.414;8.050;2024-03-02T06:12:49;5.40;99.90
25188;DHT22;13141;50.414;8.050;2024-03-02T06:15:15;5.50;99.90
25188;DHT22;13141;50.414;8.050;2024-03-02T06:17:41;5.50;99.90
25188;DHT22;13141;50.414;8.050;2024-03-02T06:20:09;5.50;99.90
25188;DHT22;13141;50.414;8.050;2024-03-02T06:22:35;5.50;99.90
25188;DHT22;13141;50.414;8.050;2024-03-02T06:25:01;5.60;99.90
25188;DHT22;13141;50.414;8.050;2024-03-02T06:27:27;5.60;99.90
25188;DHT22;13141;50.414;8.050;2024-03-02T06:29:53;5.70;99.90
25188;DHT22;13141;50.414;8.050;2024-03-02T06:32:19;5.70;99.90
25188;DHT22;13141;50.414;8.050;2024-03-02T06:34:44;5.70;99.90
25188;DHT22;13141;50.414;8.050;2024-03-02T06:37:14;5.60;99.90
25188;DHT22;13141;50.414;8.050;2024-03-02T06:39:39;5.60;99.90
25188;DHT22;13141;50.414;8.050;2024-03-02T06:42:05;5.70;99.90
25188;DHT22;13141;50.414;8.050;2024-03-02T06:44:33;5.60;99.90
25188;DHT22;13141;50.414;8.050;2024-03-02T06:46:59;5.50;99.90
25188;DHT22;13141;50.414;8.050;2024-03-02T06:49:25;5.30;99.90
25188;DHT22;13141;50.414;8.050;2024-03-02T06:51:51;5.60;99.90
25188;DHT22;13141;50.414;8.050;2024-03-02T06:54:18;5.60;99.90
25188;DHT22;13141;50.414;8.050;2024-03-02T06:56:44;5.60;99.90
25188;DHT22;13141;50.414;8.050;2024-03-02T06:59:10;5.70;99.90
25188;DHT22;13141;50.414;8.050;2024-03-02T07:01:35;5.70;99.90
25188;DHT22;13141;50.414;8.050;2024-03-02T07:04:01;5.80;99.90
25188;DHT22;13141;50.414;8.050;2024-03-02T07:06:27;5.80;99.90
25188;DHT22;13141;50.414;8.050;2024-03-02T07:08:53;5.80;99.90
25188;DHT22;13141;50.414;8.050;2024-03-02T07:11:20;5.80;99.90
25188;DHT22;13141;50.414;8.050;2024-03-02T07:13:45;5.90;99.90
25188;DHT22;13141;50.414;8.050;2024-03-02T07:16:11;6.00;99.90
25188;DHT22;13141;50.414;8.050;2024-03-02T07:18:37;6.10;99.90
25188;DHT22;13141;50.414;8.050;2024-03-02T07:21:03;6.10;99.90
25188;DHT22;13141;50.414;8.050;2024-03-02T07:23:29;6.20;99.90
25188;DHT22;13141;50.414;8.050;2024-03-02T07:25:55;6.30;99.90
25188;DHT22;13141;50.414;8.050;2024-03-02T07:28:22;6.40;99.90
25188;DHT22;13141;50.414;8.050;2024-03-02T07:30:58;6.50;99.90
25188;DHT22;13141;50.414;8.050;2024-03-02T07:33:23;6.70;99.90
25188;DHT22;13141;50.414;8.050;2024-03-02T07:35:49;6.70;99.90
25188;DHT22;13141;50.414;8.050;2024-03-02T07:38:15;6.70;99.90
25188;DHT22;13141;50.414;8.050;2024-03-02T07:40:41;6.80;99.90
25188;DHT22;13141;50.414;8.050;2024-03-02T07:43:07;6.80;99.90
25188;DHT22;13141;50.414;8.050;2024-03-02T07:45:35;6.80;99.90
25188;DHT22;13141;50.414;8.050;2024-03-02T07:48:01;6.90;99.90
25188;DHT22;13141;50.414;8.050;2024-03-02T07:50:27;7.00;99.90
25188;DHT22;13141;50.414;8.050;2024-03-02T07:52:53;7.10;99.90
25188;DHT22;13141;50.414;8.050;2024-03-02T07:55:19;7.20;99.90
25188;DHT22;13141;50.414;8.050;2024-03-02T07:57:45;7.30;99.90
25188;DHT22;13141;50.414;8.050;2024-03-02T08:00:13;7.40;99.90
25188;DHT22;13141;50.414;8.050;2024-03-02T08:02:41;7.40;99.90
25188;DHT22;13141;50.414;8.050;2024-03-02T08:05:07;7.50;99.90
25188;DHT22;13141;50.414;8.050;2024-03-02T08:07:33;7.50;99.90
25188;DHT22;13141;50.414;8.050;2024-03-02T08:09:58;7.60;99.90
25188;DHT22;13141;50.414;8.050;2024-03-02T08:12:24;7.60;99.90
25188;DHT22;13141;50.414;8.050;2024-03-02T08:14:50;7.70;99.90
25188;DHT22;13141;50.414;8.050;2024-03-02T08:17:16;7.80;99.90
25188;DHT22;13141;50.414;8.050;2024-03-02T08:19:43;7.90;99.90
25188;DHT22;13141;50.414;8.050;2024-03-02T08:22:09;8.00;99.90
25188;DHT22;13141;50.414;8.050;2024-03-02T08:24:35;8.10;99.90
25188;DHT22;13141;50.414;8.050;2024-03-02T08:27:01;8.20;99.90
25188;DHT22;13141;50.414;8.050;2024-03-02T08:29:27;8.30;99.90
25188;DHT22;13141;50.414;8.050;2024-03-02T08:31:53;8.40;99.90
25188;DHT22;13141;50.414;8.050;2024-03-02T08:34:19;8.50;99.90
25188;DHT22;13141;50.414;8.050;2024-03-02T08:36:46;8.60;99.90
25188;DHT22;13141;50.414;8.050;2024-03-02T08:39:12;8.70;99.90
25188;DHT22;13141;50.414;8.050;2024-03-02T08:41:38;8.80;99.90
25188;DHT22;13141;50.414;8.050;2024-03-02T08:44:04;8.80;99.90
25188;DHT22;13141;50.414;8.050;2024-03-02T08:46:30;8.90;99.90
25188;DHT22;13141;50.414;8.050;2024-03-02T08:48:58;9.10;99.90
25188;DHT22;13141;50.414;8.050;2024-03-02T08:51:24;9.40;99.90
25188;DHT22;13141;50.414;8.050;2024-03-02T08:53:52;9.70;99.90
25188;DHT22;13141;50.414;8.050;2024-03-02T08:56:17;9.90;99.90
25188;DHT22;13141;50.414;8.050;2024-03-02T08:58:43;10.00;99.90
25188;DHT22;13141;50.414;8.050;2024-03-02T09:01:09;10.10;99.90
25188;DHT22;13141;50.414;8.050;2024-03-02T09:03:35;10.10;99.90
25188;DHT22;13141;50.414;8.050;2024-03-02T09:06:01;10.30;99.90
25188;DHT22;13141;50.414;8.050;2024-03-02T09:08:27;10.30;99.90
25188;DHT22;13141;50.414;8.050;2024-03-02T09:10:55;9.90;99.90
25188;DHT22;13141;50.414;8.050;2024-03-02T09:13:21;10.30;99.90
25188;DHT22;13141;50.414;8.050;2024-03-02T09:15:47;10.60;99.90
25188;DHT22;13141;50.414;8.050;2024-03-02T09:18:13;10.90;99.90
25188;DHT22;13141;50.414;8.050;2024-03-02T09:20:38;11.00;99.90
25188;DHT22;13141;50.414;8.050;2024-03-02T09:23:04;11.60;99.90
25188;DHT22;13141;50.414;8.050;2024-03-02T09:25:30;11.70;99.90
25188;DHT22;13141;50.414;8.050;2024-03-02T09:27:57;11.90;99.90
25188;DHT22;13141;50.414;8.050;2024-03-02T09:30:23;12.20;99.90
25188;DHT22;13141;50.414;8.050;2024-03-02T09:32:50;12.40;99.90
25188;DHT22;13141;50.414;8.050;2024-03-02T09:35:16;12.70;99.90
25188;DHT22;13141;50.414;8.050;2024-03-02T09:37:42;12.90;99.90
25188;DHT22;13141;50.414;8.050;2024-03-02T09:40:09;13.00;99.90
25188;DHT22;13141;50.414;8.050;2024-03-02T09:42:37;13.30;99.90
25188;DHT22;13141;50.414;8.050;2024-03-02T09:45:06;13.50;99.90
25188;DHT22;13141;50.414;8.050;2024-03-02T09:47:32;13.70;99.90
25188;DHT22;13141;50.414;8.050;2024-03-02T09:49:58;13.80;99.90
25188;DHT22;13141;50.414;8.050;2024-03-02T09:52:23;14.00;99.90
25188;DHT22;13141;50.414;8.050;2024-03-02T09:54:51;14.10;99.90
25188;DHT22;13141;50.414;8.050;2024-03-02T09:57:16;13.90;99.90
25188;DHT22;13141;50.414;8.050;2024-03-02T09:59:42;14.50;99.90
25188;DHT22;13141;50.414;8.050;2024-03-02T10:02:09;14.40;99.90
25188;DHT22;13141;50.414;8.050;2024-03-02T10:04:35;14.60;99.90
25188;DHT22;13141;50.414;8.050;2024-03-02T10:07:10;14.80;99.90
25188;DHT22;13141;50.414;8.050;2024-03-02T10:09:35;14.80;99.90
25188;DHT22;13141;50.414;8.050;2024-03-02T10:12:04;14.80;99.90
25188;DHT22;13141;50.414;8.050;2024-03-02T10:14:31;15.10;99.90
25188;DHT22;13141;50.414;8.050;2024-03-02T10:29:42;15.70;99.90
25188;DHT22;13141;50.414;8.050;2024-03-02T10:32:11;16.30;99.90
25188;DHT22;13141;50.414;8.050;2024-03-02T10:34:39;16.40;99.90
25188;DHT22;13141;50.414;8.050;2024-03-02T10:37:05;16.40;99.90
25188;DHT22;13141;50.414;8.050;2024-03-02T10:39:32;16.00;99.90
25188;DHT22;13141;50.414;8.050;2024-03-02T10:41:59;16.20;99.90
25188;DHT22;13141;50.414;8.050;2024-03-02T10:44:26;16.10;99.90
25188;DHT22;13141;50.414;8.050;2024-03-02T10:46:54;16.20;99.90
25188;DHT22;13141;50.414;8.050;2024-03-02T10:49:21;16.10;99.90
25188;DHT22;13141;50.414;8.050;2024-03-02T10:51:48;16.10;99.90
25188;DHT22;13141;50.414;8.050;2024-03-02T10:54:14;15.90;99.90
25188;DHT22;13141;50.414;8.050;2024-03-02T10:56:40;15.70;99.90
25188;DHT22;13141;50.414;8.050;2024-03-02T10:59:16;15.40;99.90
25188;DHT22;13141;50.414;8.050;2024-03-02T11:01:43;15.40;99.90
25188;DHT22;13141;50.414;8.050;2024-03-02T11:04:14;15.20;99.90
25188;DHT22;13141;50.414;8.050;2024-03-02T11:06:46;14.90;99.90
25188;DHT22;13141;50.414;8.050;2024-03-02T11:09:14;14.80;99.90
25188;DHT22;13141;50.414;8.050;2024-03-02T11:11:43;14.50;99.90
25188;DHT22;13141;50.414;8.050;2024-03-02T11:14:13;14.20;99.90
25188;DHT22;13141;50.414;8.050;2024-03-02T11:16:40;14.10;99.90
25188;DHT22;13141;50.414;8.050;2024-03-02T11:19:07;14.30;99.90
25188;DHT22;13141;50.414;8.050;2024-03-02T11:21:36;14.40;99.90
25188;DHT22;13141;50.414;8.050;2024-03-02T11:24:30;14.60;99.90
25188;DHT22;13141;50.414;8.050;2024-03-02T11:26:56;14.80;99.90
25188;DHT22;13141;50.414;8.050;2024-03-02T11:29:43;15.00;99.90
25188;DHT22;13141;50.414;8.050;2024-03-02T11:32:14;15.40;99.90
25188;DHT22;13141;50.414;8.050;2024-03-02T11:34:42;15.80;99.90
25188;DHT22;13141;50.414;8.050;2024-03-02T11:37:09;15.90;99.90
25188;DHT22;13141;50.414;8.050;2024-03-02T11:39:35;15.90;99.90
25188;DHT22;13141;50.414;8.050;2024-03-02T11:42:01;15.90;99.90
25188;DHT22;13141;50.414;8.050;2024-03-02T11:44:28;16.30;99.90
25188;DHT22;13141;50.414;8.050;2024-03-02T11:46:59;16.30;99.90
25188;DHT22;13141;50.414;8.050;2024-03-02T11:49:37;16.30;99.90
25188;DHT22;13141;50.414;8.050;2024-03-02T11:52:05;16.30;99.90
25188;DHT22;13141;50.414;8.050;2024-03-02T11:54:33;16.70;99.90
25188;DHT22;13141;50.414;8.050;2024-03-02T11:57:01;16.80;99.90
25188;DHT22;13141;50.414;8.050;2024-03-02T11:59:27;16.40;99.90
25188;DHT22;13141;50.414;8.050;2024-03-02T12:01:54;16.20;99.30
25188;DHT22;13141;50.414;8.050;2024-03-02T12:04:19;16.00;99.90
25188;DHT22;13141;50.414;8.050;2024-03-02T12:06:46;15.80;99.90
25188;DHT22;13141;50.414;8.050;2024-03-02T12:09:13;16.20;99.90
25188;DHT22;13141;50.414;8.050;2024-03-02T12:11:40;16.30;99.50
25188;DHT22;13141;50.414;8.050;2024-03-02T12:14:11;16.50;99.90
25188;DHT22;13141;50.414;8.050;2024-03-02T12:16:38;16.50;98.50
25188;DHT22;13141;50.414;8.050;2024-03-02T12:19:04;16.80;98.90
25188;DHT22;13141;50.414;8.050;2024-03-02T12:21:30;17.20;99.10
25188;DHT22;13141;50.414;8.050;2024-03-02T12:23:55;17.60;97.90
25188;DHT22;13141;50.414;8.050;2024-03-02T12:26:23;17.90;97.70
25188;DHT22;13141;50.414;8.050;2024-03-02T12:28:51;17.60;96.50
25188;DHT22;13141;50.414;8.050;2024-03-02T12:31:17;17.50;96.60
25188;DHT22;13141;50.414;8.050;2024-03-02T12:33:42;17.70;96.90
25188;DHT22;13141;50.414;8.050;2024-03-02T12:36:09;17.50;97.30
25188;DHT22;13141;50.414;8.050;2024-03-02T12:38:35;16.90;96.60
25188;DHT22;13141;50.414;8.050;2024-03-02T12:41:01;16.90;97.00
25188;DHT22;13141;50.414;8.050;2024-03-02T12:43:30;16.90;97.10
25188;DHT22;13141;50.414;8.050;2024-03-02T12:45:58;17.10;96.70
25188;DHT22;13141;50.414;8.050;2024-03-02T12:48:24;17.30;97.20
25188;DHT22;13141;50.414;8.050;2024-03-02T12:50:50;17.20;96.30
25188;DHT22;13141;50.414;8.050;2024-03-02T12:53:16;17.30;95.90
25188;DHT22;13141;50.414;8.050;2024-03-02T12:55:42;17.50;97.30
25188;DHT22;13141;50.414;8.050;2024-03-02T12:58:08;17.70;95.70
25188;DHT22;13141;50.414;8.050;2024-03-02T13:00:34;17.60;95.70
25188;DHT22;13141;50.414;8.050;2024-03-02T13:03:02;17.80;96.50
25188;DHT22;13141;50.414;8.050;2024-03-02T13:05:30;17.70;95.00
25188;DHT22;13141;50.414;8.050;2024-03-02T13:07:56;17.90;96.20
25188;DHT22;13141;50.414;8.050;2024-03-02T13:10:22;18.50;97.10
25188;DHT22;13141;50.414;8.050;2024-03-02T13:12:48;18.30;95.40
25188;DHT22;13141;50.414;8.050;2024-03-02T13:15:15;17.90;94.10
25188;DHT22;13141;50.414;8.050;2024-03-02T13:17:41;17.70;95.60
25188;DHT22;13141;50.414;8.050;2024-03-02T13:20:08;17.70;95.60
25188;DHT22;13141;50.414;8.050;2024-03-02T13:22:34;17.70;96.50
25188;DHT22;13141;50.414;8.050;2024-03-02T13:25:00;17.50;95.60
25188;DHT22;13141;50.414;8.050;2024-03-02T13:27:26;17.50;95.90
25188;DHT22;13141;50.414;8.050;2024-03-02T13:29:52;17.30;95.70
25188;DHT22;13141;50.414;8.050;2024-03-02T13:32:17;17.40;95.80
25188;DHT22;13141;50.414;8.050;2024-03-02T13:34:43;17.60;95.50
25188;DHT22;13141;50.414;8.050;2024-03-02T13:37:10;17.60;95.70
25188;DHT22;13141;50.414;8.050;2024-03-02T13:39:36;17.60;95.30
25188;DHT22;13141;50.414;8.050;2024-03-02T13:42:02;17.40;95.20
25188;DHT22;13141;50.414;8.050;2024-03-02T13:44:28;17.60;94.90
25188;DHT22;13141;50.414;8.050;2024-03-02T13:46:54;17.60;93.90
25188;DHT22;13141;50.414;8.050;2024-03-02T13:49:19;17.40;94.10
25188;DHT22;13141;50.414;8.050;2024-03-02T13:51:45;17.70;94.60
25188;DHT22;13141;50.414;8.050;2024-03-02T13:54:12;17.60;93.80
25188;DHT22;13141;50.414;8.050;2024-03-02T13:56:38;17.90;93.90
25188;DHT22;13141;50.414;8.050;2024-03-02T13:59:04;17.90;94.00
25188;DHT22;13141;50.414;8.050;2024-03-02T14:01:30;18.10;93.50
25188;DHT22;13141;50.414;8.050;2024-03-02T14:03:56;18.40;94.90
25188;DHT22;13141;50.414;8.050;2024-03-02T14:06:21;18.70;93.70
25188;DHT22;13141;50.414;8.050;2024-03-02T14:08:47;18.90;93.60
25188;DHT22;13141;50.414;8.050;2024-03-02T14:11:14;18.70;92.40
25188;DHT22;13141;50.414;8.050;2024-03-02T14:13:41;18.20;92.80
25188;DHT22;13141;50.414;8.050;2024-03-02T14:16:06;18.00;92.60
25188;DHT22;13141;50.414;8.050;2024-03-02T14:18:32;17.90;92.60
25188;DHT22;13141;50.414;8.050;2024-03-02T14:20:58;17.90;94.10
25188;DHT22;13141;50.414;8.050;2024-03-02T14:23:27;18.30;94.50
25188;DHT22;13141;50.414;8.050;2024-03-02T14:25:53;18.60;94.50
25188;DHT22;13141;50.414;8.050;2024-03-02T14:28:20;18.60;93.60
25188;DHT22;13141;50.414;8.050;2024-03-02T14:30:46;18.60;94.10
25188;DHT22;13141;50.414;8.050;2024-03-02T14:33:12;18.40;93.30
25188;DHT22;13141;50.414;8.050;2024-03-02T14:35:38;18.00;93.50
25188;DHT22;13141;50.414;8.050;2024-03-02T14:38:04;17.50;92.60
25188;DHT22;13141;50.414;8.050;2024-03-02T14:40:30;17.50;94.00
25188;DHT22;13141;50.414;8.050;2024-03-02T14:42:56;17.70;94.60
25188;DHT22;13141;50.414;8.050;2024-03-02T14:45:23;17.40;93.70
25188;DHT22;13141;50.414;8.050;2024-03-02T14:47:49;17.80;93.50
25188;DHT22;13141;50.414;8.050;2024-03-02T14:50:16;17.50;92.80
25188;DHT22;13141;50.414;8.050;2024-03-02T14:52:41;17.30;93.90
25188;DHT22;13141;50.414;8.050;2024-03-02T14:55:08;17.30;94.20
25188;DHT22;13141;50.414;8.050;2024-03-02T14:57:33;17.20;93.20
25188;DHT22;13141;50.414;8.050;2024-03-02T14:59:59;16.90;93.00
25188;DHT22;13141;50.414;8.050;2024-03-02T15:02:26;16.80;93.80
25188;DHT22;13141;50.414;8.050;2024-03-02T15:04:52;16.90;93.70
25188;DHT22;13141;50.414;8.050;2024-03-02T15:07:18;16.80;94.20
25188;DHT22;13141;50.414;8.050;2024-03-02T15:09:44;16.40;94.00
25188;DHT22;13141;50.414;8.050;2024-03-02T15:12:10;16.30;94.50
25188;DHT22;13141;50.414;8.050;2024-03-02T15:14:36;16.50;95.20
25188;DHT22;13141;50.414;8.050;2024-03-02T15:17:02;16.60;94.90
25188;DHT22;13141;50.414;8.050;2024-03-02T15:19:29;16.80;94.90
25188;DHT22;13141;50.414;8.050;2024-03-02T15:21:55;16.80;95.00
25188;DHT22;13141;50.414;8.050;2024-03-02T15:24:21;16.90;94.70
25188;DHT22;13141;50.414;8.050;2024-03-02T15:26:46;17.00;95.20
25188;DHT22;13141;50.414;8.050;2024-03-02T15:29:12;17.20;95.20
25188;DHT22;13141;50.414;8.050;2024-03-02T15:31:38;17.30;95.20
25188;DHT22;13141;50.414;8.050;2024-03-02T15:34:08;17.30;95.10
25188;DHT22;13141;50.414;8.050;2024-03-02T15:36:35;17.20;94.80
25188;DHT22;13141;50.414;8.050;2024-03-02T15:39:01;17.10;95.00
25188;DHT22;13141;50.414;8.050;2024-03-02T15:41:27;17.10;95.30
25188;DHT22;13141;50.414;8.050;2024-03-02T15:43:53;17.00;95.20
25188;DHT22;13141;50.414;8.050;2024-03-02T15:46:19;16.90;95.20
25188;DHT22;13141;50.414;8.050;2024-03-02T15:48:47;16.70;95.20